createdAt,value
2023-12-17T00:00:00.040Z,25.45
2023-12-17T00:00:30.078Z,25.42
2023-12-17T00:01:00.097Z,25.42
2023-12-17T00:01:30.189Z,25.42
2023-12-17T00:02:00.174Z,25.42
2023-12-17T00:02:30.189Z,25.42
2023-12-17T00:03:17.359Z,25.41
2023-12-17T00:03:30.416Z,25.41
2023-12-17T00:04:00.496Z,25.41
2023-12-17T00:04:30.464Z,25.41
2023-12-17T00:05:00.460Z,25.44
2023-12-17T00:05:30.517Z,25.42
2023-12-17T00:06:00.552Z,25.42
2023-12-17T00:06:30.647Z,25.44
2023-12-17T00:07:00.663Z,25.41
2023-12-17T00:07:30.700Z,25.42
2023-12-17T00:08:00.750Z,25.42
2023-12-17T00:08:30.798Z,25.42
2023-12-17T00:09:00.842Z,25.44
2023-12-17T00:09:30.872Z,25.42
2023-12-17T00:10:00.900Z,25.45
2023-12-17T00:10:30.922Z,25.42
2023-12-17T00:11:00.939Z,25.42
2023-12-17T00:11:30.956Z,25.44
2023-12-17T00:12:00.996Z,25.45
2023-12-17T00:12:31.059Z,25.44
2023-12-17T00:13:01.109Z,25.44
2023-12-17T00:13:31.143Z,25.42
2023-12-17T00:14:01.191Z,25.44
2023-12-17T00:14:31.217Z,25.42
2023-12-17T00:15:01.245Z,25.42
2023-12-17T00:15:31.287Z,25.44
2023-12-17T00:16:01.316Z,25.42
2023-12-17T00:16:31.337Z,25.45
2023-12-17T00:17:01.360Z,25.45
2023-12-17T00:17:31.372Z,25.45
2023-12-17T00:18:01.680Z,25.44
2023-12-17T00:18:31.604Z,25.42
2023-12-17T00:19:01.671Z,25.42
2023-12-17T00:19:31.812Z,25.47
2023-12-17T00:20:01.757Z,25.44
2023-12-17T00:20:31.786Z,25.44
2023-12-17T00:21:01.837Z,25.45
2023-12-17T00:21:31.898Z,25.44
2023-12-17T00:22:01.978Z,25.42
2023-12-17T00:22:31.989Z,25.45
2023-12-17T00:23:02.008Z,25.44
2023-12-17T00:23:32.029Z,25.44
2023-12-17T00:24:02.082Z,25.44
2023-12-17T00:24:32.114Z,25.44
2023-12-17T00:25:02.132Z,25.44
2023-12-17T00:25:32.162Z,25.47
2023-12-17T00:26:02.167Z,25.45
2023-12-17T00:26:32.225Z,25.45
2023-12-17T00:27:02.353Z,25.45
2023-12-17T00:27:32.286Z,25.45
2023-12-17T00:28:02.311Z,25.45
2023-12-17T00:28:32.337Z,25.44
2023-12-17T00:29:02.363Z,25.45
2023-12-17T00:29:32.379Z,25.47
2023-12-17T00:30:02.450Z,25.42
2023-12-17T00:30:32.519Z,25.45
2023-12-17T00:31:02.591Z,25.45
2023-12-17T00:31:32.685Z,25.41
2023-12-17T00:32:02.722Z,25.45
2023-12-17T00:32:32.827Z,25.44
2023-12-17T00:33:03.024Z,25.45
2023-12-17T00:33:32.990Z,25.44
2023-12-17T00:34:02.986Z,25.44
2023-12-17T00:34:33.044Z,25.44
2023-12-17T00:35:02.943Z,25.44
2023-12-17T00:35:32.953Z,25.45
2023-12-17T00:36:03.047Z,25.45
2023-12-17T00:36:33.097Z,25.44
2023-12-17T00:37:03.115Z,25.47
2023-12-17T00:37:33.140Z,25.47
2023-12-17T00:38:03.154Z,25.44
2023-12-17T00:38:33.201Z,25.44
2023-12-17T00:39:03.285Z,25.42
2023-12-17T00:39:33.331Z,25.45
2023-12-17T00:40:03.348Z,25.42
2023-12-17T00:40:33.375Z,25.48
2023-12-17T00:41:03.415Z,25.44
2023-12-17T00:41:33.405Z,25.44
2023-12-17T00:42:03.563Z,25.44
2023-12-17T00:42:33.564Z,25.42
2023-12-17T00:43:03.674Z,25.44
2023-12-17T00:43:33.816Z,25.44
2023-12-17T00:44:03.906Z,25.45
2023-12-17T00:44:34.004Z,25.47
2023-12-17T00:45:04.169Z,25.47
2023-12-17T00:45:34.190Z,25.45
2023-12-17T00:46:04.165Z,25.44
2023-12-17T00:46:34.279Z,25.44
2023-12-17T00:47:04.398Z,25.45
2023-12-17T00:47:34.525Z,25.42
2023-12-17T00:48:04.844Z,25.44
2023-12-17T00:48:34.887Z,25.44
2023-12-17T00:49:04.959Z,25.47
2023-12-17T00:49:34.988Z,25.44
2023-12-17T00:50:05.009Z,25.45
2023-12-17T00:50:35.019Z,25.47
2023-12-17T00:51:35.094Z,25.45
2023-12-17T00:52:05.115Z,25.47
2023-12-17T00:52:35.156Z,25.45
2023-12-17T00:53:05.190Z,25.44
2023-12-17T00:53:35.185Z,25.45
2023-12-17T00:54:05.314Z,25.44
2023-12-17T00:54:35.324Z,25.42
2023-12-17T00:55:05.366Z,25.44
2023-12-17T00:55:35.396Z,25.45
2023-12-17T00:56:05.417Z,25.45
2023-12-17T00:56:35.433Z,25.45
2023-12-17T00:57:05.508Z,25.44
2023-12-17T00:57:35.568Z,25.45
2023-12-17T00:58:05.568Z,25.45
2023-12-17T00:58:35.654Z,25.44
2023-12-17T00:59:05.685Z,25.42
2023-12-17T00:59:35.759Z,25.45
2023-12-17T01:00:05.794Z,25.42
2023-12-17T01:00:42.904Z,25.45
2023-12-17T01:01:05.872Z,25.44
2023-12-17T01:01:35.901Z,25.45
2023-12-17T01:02:05.973Z,25.44
2023-12-17T01:02:36.002Z,25.45
2023-12-17T01:03:06.083Z,25.45
2023-12-17T01:03:36.191Z,25.42
2023-12-17T01:04:06.208Z,25.45
2023-12-17T01:04:36.225Z,25.42
2023-12-17T01:05:06.274Z,25.45
2023-12-17T01:05:36.280Z,25.45
2023-12-17T01:06:06.397Z,25.45
2023-12-17T01:06:36.366Z,25.44
2023-12-17T01:07:06.378Z,25.44
2023-12-17T01:07:36.427Z,25.45
2023-12-17T01:08:06.416Z,25.45
2023-12-17T01:08:36.479Z,25.45
2023-12-17T01:09:06.556Z,25.42
2023-12-17T01:09:36.544Z,25.44
2023-12-17T01:10:06.583Z,25.45
2023-12-17T01:10:36.599Z,25.44
2023-12-17T01:11:06.632Z,25.45
2023-12-17T01:11:36.669Z,25.44
2023-12-17T01:12:06.724Z,25.45
2023-12-17T01:12:36.741Z,25.44
2023-12-17T01:13:06.790Z,25.45
2023-12-17T01:13:37.372Z,25.44
2023-12-17T01:14:06.893Z,25.44
2023-12-17T01:14:37.042Z,25.45
2023-12-17T01:15:06.987Z,25.44
2023-12-17T01:15:37.093Z,25.45
2023-12-17T01:16:07.092Z,25.42
2023-12-17T01:16:37.112Z,25.44
2023-12-17T01:17:07.183Z,25.44
2023-12-17T01:17:37.412Z,25.47
2023-12-17T01:18:07.434Z,25.42
2023-12-17T01:18:37.646Z,25.44
2023-12-17T01:19:07.358Z,25.44
2023-12-17T01:19:37.526Z,25.42
2023-12-17T01:20:07.444Z,25.42
2023-12-17T01:20:37.463Z,25.41
2023-12-17T01:21:07.608Z,25.41
2023-12-17T01:21:37.544Z,25.44
2023-12-17T01:22:07.568Z,25.44
2023-12-17T01:22:37.618Z,25.42
2023-12-17T01:23:07.648Z,25.40
2023-12-17T01:23:37.659Z,25.42
2023-12-17T01:24:07.796Z,25.41
2023-12-17T01:24:37.717Z,25.42
2023-12-17T01:25:07.779Z,25.42
2023-12-17T01:25:37.766Z,25.41
2023-12-17T01:26:07.801Z,25.42
2023-12-17T01:26:37.830Z,25.40
2023-12-17T01:27:07.902Z,25.41
2023-12-17T01:27:38.209Z,25.41
2023-12-17T01:28:08.026Z,25.40
2023-12-17T01:28:38.054Z,25.44
2023-12-17T01:29:08.065Z,25.41
2023-12-17T01:29:38.107Z,25.41
2023-12-17T01:30:08.254Z,25.40
2023-12-17T01:30:38.326Z,25.40
2023-12-17T01:31:08.300Z,25.40
2023-12-17T01:31:38.347Z,25.41
2023-12-17T01:32:08.378Z,25.41
2023-12-17T01:32:38.408Z,25.40
2023-12-17T01:33:08.514Z,25.38
2023-12-17T01:33:38.582Z,25.40
2023-12-17T01:34:08.585Z,25.41
2023-12-17T01:34:38.676Z,25.40
2023-12-17T01:35:08.719Z,25.38
2023-12-17T01:35:38.733Z,25.40
2023-12-17T01:36:08.777Z,25.40
2023-12-17T01:36:38.762Z,25.38
2023-12-17T01:37:08.818Z,25.40
2023-12-17T01:37:39.082Z,25.41
2023-12-17T01:38:08.915Z,25.41
2023-12-17T01:38:38.949Z,25.38
2023-12-17T01:39:09.002Z,25.37
2023-12-17T01:39:39.022Z,25.37
2023-12-17T01:40:09.061Z,25.41
2023-12-17T01:40:39.094Z,25.38
2023-12-17T01:41:09.152Z,25.38
2023-12-17T01:41:39.161Z,25.38
2023-12-17T01:42:09.171Z,25.38
2023-12-17T01:42:39.148Z,25.40
2023-12-17T01:43:09.256Z,25.38
2023-12-17T01:43:39.374Z,25.38
2023-12-17T01:44:09.472Z,25.38
2023-12-17T01:44:39.627Z,25.37
2023-12-17T01:45:09.723Z,25.38
2023-12-17T01:45:39.750Z,25.38
2023-12-17T01:46:09.743Z,25.38
2023-12-17T01:47:09.788Z,25.40
2023-12-17T01:47:40.216Z,25.37
2023-12-17T01:48:10.207Z,25.40
2023-12-17T01:48:40.019Z,25.37
2023-12-17T01:49:10.187Z,25.38
2023-12-17T01:49:40.114Z,25.40
2023-12-17T01:50:10.178Z,25.38
2023-12-17T01:50:40.204Z,25.40
2023-12-17T01:51:10.231Z,25.38
2023-12-17T01:51:40.219Z,25.40
2023-12-17T01:52:10.237Z,25.38
2023-12-17T01:52:40.267Z,25.37
2023-12-17T01:53:10.282Z,25.40
2023-12-17T01:53:40.383Z,25.37
2023-12-17T01:54:10.434Z,25.40
2023-12-17T01:54:40.443Z,25.40
2023-12-17T01:55:10.719Z,25.38
2023-12-17T01:55:40.509Z,25.37
2023-12-17T01:56:10.528Z,25.40
2023-12-17T01:56:40.572Z,25.38
2023-12-17T01:57:10.632Z,25.40
2023-12-17T01:57:40.867Z,25.38
2023-12-17T01:58:10.767Z,25.38
2023-12-17T01:58:40.745Z,25.37
2023-12-17T01:59:10.776Z,25.37
2023-12-17T01:59:40.853Z,25.38
2023-12-17T02:00:10.929Z,25.41
2023-12-17T02:00:40.972Z,25.40
2023-12-17T02:01:10.985Z,25.38
2023-12-17T02:01:41.018Z,25.37
2023-12-17T02:02:11.030Z,25.40
2023-12-17T02:02:41.064Z,25.40
2023-12-17T02:03:11.157Z,25.42
2023-12-17T02:03:41.280Z,25.38
2023-12-17T02:04:11.216Z,25.38
2023-12-17T02:04:41.245Z,25.40
2023-12-17T02:05:11.255Z,25.38
2023-12-17T02:05:41.385Z,25.37
2023-12-17T02:06:11.389Z,25.38
2023-12-17T02:06:41.496Z,25.41
2023-12-17T02:07:11.512Z,25.40
2023-12-17T02:07:41.768Z,25.40
2023-12-17T02:08:11.541Z,25.40
2023-12-17T02:08:41.604Z,25.38
2023-12-17T02:09:11.637Z,25.38
2023-12-17T02:09:41.690Z,25.40
2023-12-17T02:10:11.711Z,25.41
2023-12-17T02:10:41.735Z,25.41
2023-12-17T02:11:11.768Z,25.38
2023-12-17T02:11:41.791Z,25.37
2023-12-17T02:12:11.831Z,25.37
2023-12-17T02:12:41.826Z,25.37
2023-12-17T02:13:11.879Z,25.37
2023-12-17T02:13:41.926Z,25.38
2023-12-17T02:14:11.970Z,25.38
2023-12-17T02:14:42.026Z,25.38
2023-12-17T02:15:12.107Z,25.37
2023-12-17T02:15:42.128Z,25.38
2023-12-17T02:16:12.170Z,25.37
2023-12-17T02:16:42.171Z,25.38
2023-12-17T02:17:42.683Z,25.37
2023-12-17T02:18:12.427Z,25.38
2023-12-17T02:18:42.595Z,25.38
2023-12-17T02:19:12.513Z,25.38
2023-12-17T02:19:42.610Z,25.38
2023-12-17T02:20:12.522Z,25.37
2023-12-17T02:20:42.598Z,25.36
2023-12-17T02:21:12.621Z,25.37
2023-12-17T02:21:42.639Z,25.38
2023-12-17T02:22:12.663Z,25.36
2023-12-17T02:22:42.677Z,25.37
2023-12-17T02:23:12.716Z,25.37
2023-12-17T02:23:42.775Z,25.38
2023-12-17T02:24:12.825Z,25.34
2023-12-17T02:24:42.854Z,25.38
2023-12-17T02:25:12.861Z,25.37
2023-12-17T02:25:42.886Z,25.37
2023-12-17T02:26:12.903Z,25.38
2023-12-17T02:26:42.956Z,25.37
2023-12-17T02:27:13.015Z,25.36
2023-12-17T02:27:43.381Z,25.37
2023-12-17T02:28:13.064Z,25.34
2023-12-17T02:28:43.081Z,25.37
2023-12-17T02:29:13.092Z,25.38
2023-12-17T02:29:43.160Z,25.36
2023-12-17T02:30:13.267Z,25.38
2023-12-17T02:30:43.286Z,25.36
2023-12-17T02:31:13.322Z,25.36
2023-12-17T02:31:43.337Z,25.36
2023-12-17T02:32:13.395Z,25.37
2023-12-17T02:32:43.480Z,25.36
2023-12-17T02:33:13.666Z,25.37
2023-12-17T02:33:43.711Z,25.36
2023-12-17T02:34:43.664Z,25.37
2023-12-17T02:35:13.673Z,25.37
2023-12-17T02:35:43.739Z,25.34
2023-12-17T02:36:13.824Z,25.38
2023-12-17T02:36:44.140Z,25.37
2023-12-17T02:37:13.921Z,25.38
2023-12-17T02:37:43.965Z,25.36
2023-12-17T02:38:13.994Z,25.37
2023-12-17T02:38:44.048Z,25.38
2023-12-17T02:39:14.125Z,25.37
2023-12-17T02:39:44.163Z,25.36
2023-12-17T02:40:14.157Z,25.37
2023-12-17T02:40:44.173Z,25.38
2023-12-17T02:41:14.189Z,25.38
2023-12-17T02:41:44.244Z,25.38
2023-12-17T02:42:14.244Z,25.37
2023-12-17T02:43:14.245Z,25.38
2023-12-17T02:43:44.269Z,25.38
2023-12-17T02:44:14.263Z,25.41
2023-12-17T02:44:44.388Z,25.40
2023-12-17T02:45:14.602Z,25.37
2023-12-17T02:45:44.584Z,25.38
2023-12-17T02:46:14.686Z,25.40
2023-12-17T02:46:44.845Z,25.37
2023-12-17T02:47:14.814Z,25.40
2023-12-17T02:47:45.327Z,25.40
2023-12-17T02:48:15.109Z,25.40
2023-12-17T02:48:45.160Z,25.40
2023-12-17T02:49:15.092Z,25.40
2023-12-17T02:49:45.202Z,25.40
2023-12-17T02:50:15.149Z,25.38
2023-12-17T02:50:45.307Z,25.37
2023-12-17T02:51:15.389Z,25.38
2023-12-17T02:51:45.436Z,25.38
2023-12-17T02:52:15.440Z,25.40
2023-12-17T02:52:45.455Z,25.40
2023-12-17T02:53:15.501Z,25.37
2023-12-17T02:53:45.579Z,25.38
2023-12-17T02:54:15.617Z,25.38
2023-12-17T02:54:45.665Z,25.38
2023-12-17T02:55:15.707Z,25.37
2023-12-17T02:55:45.815Z,25.38
2023-12-17T02:56:15.856Z,25.40
2023-12-17T02:56:45.898Z,25.38
2023-12-17T02:57:16.027Z,25.40
2023-12-17T02:57:45.933Z,25.38
2023-12-17T02:58:15.937Z,25.37
2023-12-17T02:58:45.959Z,25.37
2023-12-17T02:59:15.990Z,25.38
2023-12-17T02:59:46.006Z,25.38
2023-12-17T03:00:16.131Z,25.36
2023-12-17T03:00:46.113Z,25.38
2023-12-17T03:01:16.147Z,25.37
2023-12-17T03:01:46.168Z,25.36
2023-12-17T03:02:16.191Z,25.37
2023-12-17T03:02:46.289Z,25.37
2023-12-17T03:03:16.364Z,25.38
2023-12-17T03:03:46.491Z,25.37
2023-12-17T03:04:16.526Z,25.36
2023-12-17T03:04:46.573Z,25.37
2023-12-17T03:05:16.740Z,25.36
2023-12-17T03:05:46.692Z,25.36
2023-12-17T03:06:16.778Z,25.36
2023-12-17T03:06:46.788Z,25.38
2023-12-17T03:07:16.797Z,25.36
2023-12-17T03:07:46.837Z,25.34
2023-12-17T03:08:16.865Z,25.36
2023-12-17T03:08:46.896Z,25.34
2023-12-17T03:09:16.963Z,25.36
2023-12-17T03:09:47.048Z,25.37
2023-12-17T03:10:17.103Z,25.36
2023-12-17T03:10:47.144Z,25.34
2023-12-17T03:11:17.152Z,25.34
2023-12-17T03:11:47.187Z,25.37
2023-12-17T03:12:17.195Z,25.34
2023-12-17T03:12:47.217Z,25.37
2023-12-17T03:13:17.238Z,25.36
2023-12-17T03:13:47.241Z,25.34
2023-12-17T03:14:17.260Z,25.34
2023-12-17T03:14:47.355Z,25.34
2023-12-17T03:15:17.389Z,25.36
2023-12-17T03:15:47.415Z,25.36
2023-12-17T03:16:17.432Z,25.36
2023-12-17T03:16:47.447Z,25.34
2023-12-17T03:17:17.478Z,25.36
2023-12-17T03:17:47.575Z,25.34
2023-12-17T03:18:17.739Z,25.34
2023-12-17T03:18:47.786Z,25.36
2023-12-17T03:19:17.819Z,25.33
2023-12-17T03:19:47.790Z,25.36
2023-12-17T03:20:17.801Z,25.33
2023-12-17T03:20:47.853Z,25.34
2023-12-17T03:21:17.888Z,25.34
2023-12-17T03:21:47.893Z,25.34
2023-12-17T03:22:17.912Z,25.36
2023-12-17T03:22:47.933Z,25.36
2023-12-17T03:23:17.941Z,25.33
2023-12-17T03:23:48.010Z,25.31
2023-12-17T03:24:18.088Z,25.34
2023-12-17T03:24:48.100Z,25.36
2023-12-17T03:25:20.526Z,25.33
2023-12-17T03:25:48.115Z,25.36
2023-12-17T03:26:18.164Z,25.34
2023-12-17T03:26:48.251Z,25.37
2023-12-17T03:27:18.285Z,25.33
2023-12-17T03:27:48.275Z,25.36
2023-12-17T03:28:18.320Z,25.34
2023-12-17T03:28:48.368Z,25.33
2023-12-17T03:29:18.407Z,25.34
2023-12-17T03:29:48.463Z,25.33
2023-12-17T03:30:18.646Z,25.36
2023-12-17T03:30:48.720Z,25.36
2023-12-17T03:31:18.696Z,25.33
2023-12-17T03:31:48.743Z,25.33
2023-12-17T03:32:18.807Z,25.34
2023-12-17T03:32:48.958Z,25.34
2023-12-17T03:33:19.117Z,25.33
2023-12-17T03:33:49.330Z,25.34
2023-12-17T03:34:19.315Z,25.33
2023-12-17T03:34:49.231Z,25.34
2023-12-17T03:35:19.244Z,25.34
2023-12-17T03:35:49.319Z,25.34
2023-12-17T03:36:19.412Z,25.34
2023-12-17T03:36:49.362Z,25.34
2023-12-17T03:37:19.576Z,25.36
2023-12-17T03:37:49.580Z,25.34
2023-12-17T03:38:19.575Z,25.34
2023-12-17T03:38:49.603Z,25.33
2023-12-17T03:39:19.759Z,25.34
2023-12-17T03:39:49.667Z,25.33
2023-12-17T03:40:19.697Z,25.36
2023-12-17T03:40:49.694Z,25.34
2023-12-17T03:41:19.694Z,25.34
2023-12-17T03:41:49.858Z,25.34
2023-12-17T03:42:19.933Z,25.36
2023-12-17T03:42:49.945Z,25.33
2023-12-17T03:43:19.927Z,25.36
2023-12-17T03:43:50.045Z,25.33
2023-12-17T03:44:20.148Z,25.31
2023-12-17T03:44:50.268Z,25.36
2023-12-17T03:45:20.493Z,25.36
2023-12-17T03:45:50.386Z,25.34
2023-12-17T03:46:20.510Z,25.36
2023-12-17T03:46:50.626Z,25.34
2023-12-17T03:47:20.643Z,25.34
2023-12-17T03:48:20.845Z,25.33
2023-12-17T03:48:51.124Z,25.34
2023-12-17T03:49:21.019Z,25.33
2023-12-17T03:50:20.833Z,25.34
2023-12-17T03:50:50.963Z,25.33
2023-12-17T03:51:21.012Z,25.34
2023-12-17T03:51:51.054Z,25.36
2023-12-17T03:52:21.086Z,25.36
2023-12-17T03:52:51.130Z,25.36
2023-12-17T03:53:21.132Z,25.34
2023-12-17T03:53:51.176Z,25.34
2023-12-17T03:54:21.188Z,25.34
2023-12-17T03:54:51.185Z,25.34
2023-12-17T03:55:21.209Z,25.33
2023-12-17T03:55:51.226Z,25.37
2023-12-17T03:56:21.266Z,25.33
2023-12-17T03:56:51.358Z,25.34
2023-12-17T03:57:21.440Z,25.34
2023-12-17T03:57:51.376Z,25.34
2023-12-17T03:58:21.404Z,25.36
2023-12-17T03:58:51.440Z,25.36
2023-12-17T03:59:21.492Z,25.36
2023-12-17T03:59:51.500Z,25.33
2023-12-17T04:00:21.498Z,25.34
2023-12-17T04:00:51.559Z,25.34
2023-12-17T04:01:21.638Z,25.34
2023-12-17T04:01:51.661Z,25.33
2023-12-17T04:02:21.667Z,25.34
2023-12-17T04:02:51.808Z,25.34
2023-12-17T04:03:21.774Z,25.34
2023-12-17T04:03:51.850Z,25.36
2023-12-17T04:04:21.801Z,25.34
2023-12-17T04:04:51.802Z,25.34
2023-12-17T04:05:21.854Z,25.37
2023-12-17T04:05:51.957Z,25.31
2023-12-17T04:06:21.989Z,25.36
2023-12-17T04:06:51.990Z,25.34
2023-12-17T04:07:22.000Z,25.34
2023-12-17T04:07:52.015Z,25.34
2023-12-17T04:08:22.020Z,25.34
2023-12-17T04:08:54.683Z,25.34
2023-12-17T04:09:22.182Z,25.33
2023-12-17T04:09:52.160Z,25.33
2023-12-17T04:10:22.207Z,25.37
2023-12-17T04:10:52.246Z,25.33
2023-12-17T04:11:22.272Z,25.34
2023-12-17T04:11:52.376Z,25.36
2023-12-17T04:12:22.341Z,25.36
2023-12-17T04:12:52.377Z,25.34
2023-12-17T04:13:22.383Z,25.36
2023-12-17T04:13:52.436Z,25.36
2023-12-17T04:14:22.425Z,25.34
2023-12-17T04:14:52.623Z,25.33
2023-12-17T04:15:22.733Z,25.34
2023-12-17T04:15:52.662Z,25.36
2023-12-17T04:16:22.689Z,25.36
2023-12-17T04:16:52.721Z,25.34
2023-12-17T04:17:22.738Z,25.34
2023-12-17T04:17:52.886Z,25.34
2023-12-17T04:18:22.983Z,25.36
2023-12-17T04:18:52.996Z,25.36
2023-12-17T04:19:23.147Z,25.33
2023-12-17T04:19:53.109Z,25.34
2023-12-17T04:20:22.991Z,25.34
2023-12-17T04:21:23.137Z,25.36
2023-12-17T04:21:53.141Z,25.33
2023-12-17T04:22:23.176Z,25.33
2023-12-17T04:22:53.185Z,25.36
2023-12-17T04:23:23.186Z,25.37
2023-12-17T04:23:53.231Z,25.34
2023-12-17T04:24:23.322Z,25.31
2023-12-17T04:24:53.352Z,25.33
2023-12-17T04:25:23.356Z,25.37
2023-12-17T04:25:53.376Z,25.34
2023-12-17T04:26:23.385Z,25.33
2023-12-17T04:26:53.409Z,25.33
2023-12-17T04:27:23.450Z,25.34
2023-12-17T04:27:53.499Z,25.36
2023-12-17T04:28:23.499Z,25.34
2023-12-17T04:28:53.566Z,25.34
2023-12-17T04:29:23.581Z,25.37
2023-12-17T04:29:53.645Z,25.33
2023-12-17T04:30:23.773Z,25.31
2023-12-17T04:30:53.713Z,25.33
2023-12-17T04:31:23.785Z,25.34
2023-12-17T04:31:53.829Z,25.34
2023-12-17T04:32:23.855Z,25.31
2023-12-17T04:32:54.071Z,25.31
2023-12-17T04:33:24.145Z,25.33
2023-12-17T04:33:54.013Z,25.33
2023-12-17T04:34:54.001Z,25.33
2023-12-17T04:35:24.055Z,25.33
2023-12-17T04:35:54.085Z,25.33
2023-12-17T04:36:24.129Z,25.33
2023-12-17T04:36:54.136Z,25.33
2023-12-17T04:37:24.152Z,25.33
2023-12-17T04:37:54.186Z,25.33
2023-12-17T04:38:24.231Z,25.33
2023-12-17T04:38:54.275Z,25.33
2023-12-17T04:39:24.339Z,25.33
2023-12-17T04:39:54.346Z,25.30
2023-12-17T04:40:24.338Z,25.31
2023-12-17T04:40:54.346Z,25.30
2023-12-17T04:41:24.342Z,25.31
2023-12-17T04:41:54.501Z,25.33
2023-12-17T04:42:24.478Z,25.31
2023-12-17T04:42:54.477Z,25.30
2023-12-17T04:43:24.481Z,25.30
2023-12-17T04:43:54.589Z,25.30
2023-12-17T04:44:24.562Z,25.31
2023-12-17T04:44:54.700Z,25.31
2023-12-17T04:45:24.787Z,25.30
2023-12-17T04:45:54.903Z,25.33
2023-12-17T04:46:25.007Z,25.31
2023-12-17T04:46:55.122Z,25.28
2023-12-17T04:47:25.268Z,25.31
2023-12-17T04:47:55.369Z,25.31
2023-12-17T04:48:55.455Z,25.30
2023-12-17T04:49:25.443Z,25.27
2023-12-17T04:49:55.369Z,25.28
2023-12-17T04:50:25.371Z,25.28
2023-12-17T04:50:55.583Z,25.28
2023-12-17T04:51:25.580Z,25.28
2023-12-17T04:51:55.620Z,25.28
2023-12-17T04:52:25.652Z,25.28
2023-12-17T04:52:55.673Z,25.28
2023-12-17T04:53:25.696Z,25.28
2023-12-17T04:53:55.750Z,25.30
2023-12-17T04:54:25.807Z,25.28
2023-12-17T04:54:55.843Z,25.28
2023-12-17T04:55:25.862Z,25.27
2023-12-17T04:55:55.991Z,25.27
2023-12-17T04:56:26.014Z,25.26
2023-12-17T04:56:56.150Z,25.28
2023-12-17T04:57:26.091Z,25.28
2023-12-17T04:57:56.130Z,25.27
2023-12-17T04:58:26.151Z,25.28
2023-12-17T04:58:56.178Z,25.28
2023-12-17T04:59:26.208Z,25.27
2023-12-17T04:59:56.264Z,25.27
2023-12-17T05:00:26.312Z,25.26
2023-12-17T05:00:56.348Z,25.28
2023-12-17T05:01:26.387Z,25.27
2023-12-17T05:01:56.406Z,25.27
2023-12-17T05:02:26.422Z,25.26
2023-12-17T05:02:56.541Z,25.27
2023-12-17T05:03:26.501Z,25.27
2023-12-17T05:03:56.598Z,25.26
2023-12-17T05:04:26.604Z,25.27
2023-12-17T05:04:56.722Z,25.27
2023-12-17T05:05:26.543Z,25.26
2023-12-17T05:05:56.728Z,25.27
2023-12-17T05:06:26.759Z,25.26
2023-12-17T05:06:56.669Z,25.26
2023-12-17T05:07:26.679Z,25.30
2023-12-17T05:07:56.705Z,25.26
2023-12-17T05:08:26.742Z,25.27
2023-12-17T05:08:56.772Z,25.24
2023-12-17T05:09:26.846Z,25.26
2023-12-17T05:09:56.882Z,25.26
2023-12-17T05:10:26.904Z,25.24
2023-12-17T05:10:56.960Z,25.26
2023-12-17T05:11:26.978Z,25.24
2023-12-17T05:11:57.097Z,25.27
2023-12-17T05:12:27.148Z,25.27
2023-12-17T05:12:57.153Z,25.26
2023-12-17T05:13:27.178Z,25.27
2023-12-17T05:13:57.213Z,25.28
2023-12-17T05:14:27.221Z,25.26
2023-12-17T05:14:57.305Z,25.28
2023-12-17T05:15:27.375Z,25.28
2023-12-17T05:15:57.403Z,25.26
2023-12-17T05:16:27.427Z,25.26
2023-12-17T05:16:57.449Z,25.28
2023-12-17T05:17:27.526Z,25.24
2023-12-17T05:17:57.673Z,25.27
2023-12-17T05:18:27.624Z,25.28
2023-12-17T05:18:57.657Z,25.27
2023-12-17T05:19:27.777Z,25.28
2023-12-17T05:19:57.604Z,25.27
2023-12-17T05:20:57.747Z,25.28
2023-12-17T05:21:27.840Z,25.26
2023-12-17T05:21:57.770Z,25.28
2023-12-17T05:22:27.790Z,25.24
2023-12-17T05:22:57.797Z,25.30
2023-12-17T05:23:27.830Z,25.28
2023-12-17T05:23:57.875Z,25.27
2023-12-17T05:24:27.979Z,25.28
2023-12-17T05:24:57.995Z,25.28
2023-12-17T05:25:28.016Z,25.28
2023-12-17T05:25:58.038Z,25.27
2023-12-17T05:26:28.048Z,25.28
2023-12-17T05:26:58.100Z,25.30
2023-12-17T05:27:28.141Z,25.27
2023-12-17T05:27:58.175Z,25.28
2023-12-17T05:28:28.233Z,25.28
2023-12-17T05:28:58.266Z,25.30
2023-12-17T05:29:28.324Z,25.30
2023-12-17T05:29:58.354Z,25.28
2023-12-17T05:30:28.453Z,25.30
2023-12-17T05:30:58.561Z,25.28
2023-12-17T05:31:28.528Z,25.28
2023-12-17T05:31:58.557Z,25.30
2023-12-17T05:32:28.587Z,25.31
2023-12-17T05:32:58.723Z,25.28
2023-12-17T05:33:28.780Z,25.30
2023-12-17T05:33:58.791Z,25.31
2023-12-17T05:34:28.903Z,25.31
2023-12-17T05:35:28.802Z,25.28
2023-12-17T05:35:58.861Z,25.31
2023-12-17T05:36:28.919Z,25.31
2023-12-17T05:36:58.940Z,25.28
2023-12-17T05:37:28.976Z,25.30
2023-12-17T05:37:58.962Z,25.28
2023-12-17T05:38:29.025Z,25.31
2023-12-17T05:38:59.090Z,25.27
2023-12-17T05:39:29.141Z,25.31
2023-12-17T05:39:59.101Z,25.31
2023-12-17T05:40:29.127Z,25.30
2023-12-17T05:40:59.150Z,25.30
2023-12-17T05:41:29.151Z,25.30
2023-12-17T05:41:59.283Z,25.30
2023-12-17T05:42:29.412Z,25.31
2023-12-17T05:42:59.420Z,25.31
2023-12-17T05:43:29.571Z,25.31
2023-12-17T05:43:59.557Z,25.33
2023-12-17T05:44:29.643Z,25.31
2023-12-17T05:44:59.791Z,25.30
2023-12-17T05:45:29.854Z,25.30
2023-12-17T05:46:05.995Z,25.28
2023-12-17T05:46:29.854Z,25.28
2023-12-17T05:46:59.962Z,25.30
2023-12-17T05:47:30.088Z,25.28
2023-12-17T05:48:00.375Z,25.33
2023-12-17T05:48:30.194Z,25.30
2023-12-17T05:49:00.533Z,25.31
2023-12-17T05:49:30.466Z,25.30
2023-12-17T05:50:00.713Z,25.30
2023-12-17T05:50:30.444Z,25.31
2023-12-17T05:51:00.564Z,25.30
2023-12-17T05:51:30.702Z,25.28
2023-12-17T05:52:00.592Z,25.30
2023-12-17T05:52:30.636Z,25.28
2023-12-17T05:53:00.703Z,25.30
2023-12-17T05:53:37.852Z,25.30
2023-12-17T05:54:00.778Z,25.30
2023-12-17T05:54:30.936Z,25.28
2023-12-17T05:55:00.856Z,25.31
2023-12-17T05:55:30.869Z,25.31
2023-12-17T05:56:00.934Z,25.30
2023-12-17T05:56:31.108Z,25.30
2023-12-17T05:57:01.121Z,25.28
2023-12-17T05:57:31.206Z,25.28
2023-12-17T05:58:01.210Z,25.28
2023-12-17T05:58:31.227Z,25.31
2023-12-17T05:59:01.270Z,25.30
2023-12-17T05:59:31.280Z,25.30
2023-12-17T06:00:01.334Z,25.30
2023-12-17T06:00:31.401Z,25.30
2023-12-17T06:01:01.430Z,25.28
2023-12-17T06:01:31.446Z,25.28
2023-12-17T06:02:01.500Z,25.30
2023-12-17T06:02:31.528Z,25.30
2023-12-17T06:03:01.547Z,25.31
2023-12-17T06:03:31.692Z,25.30
2023-12-17T06:04:01.681Z,25.30
2023-12-17T06:04:31.693Z,25.28
2023-12-17T06:05:01.732Z,25.28
2023-12-17T06:05:31.792Z,25.30
2023-12-17T06:06:01.993Z,25.33
2023-12-17T06:06:32.050Z,25.33
2023-12-17T06:07:02.001Z,25.31
2023-12-17T06:07:32.085Z,25.28
2023-12-17T06:08:02.068Z,25.30
2023-12-17T06:08:32.102Z,25.31
2023-12-17T06:09:02.204Z,25.30
2023-12-17T06:09:32.279Z,25.30
2023-12-17T06:10:02.288Z,25.27
2023-12-17T06:10:32.293Z,25.30
2023-12-17T06:11:02.328Z,25.27
2023-12-17T06:11:32.362Z,25.30
2023-12-17T06:12:02.409Z,25.30
2023-12-17T06:12:32.489Z,25.27
2023-12-17T06:13:02.492Z,25.28
2023-12-17T06:13:32.512Z,25.26
2023-12-17T06:14:02.539Z,25.28
2023-12-17T06:14:32.564Z,25.28
2023-12-17T06:15:02.673Z,25.28
2023-12-17T06:15:32.659Z,25.27
2023-12-17T06:16:02.710Z,25.28
2023-12-17T06:16:32.731Z,25.28
2023-12-17T06:17:02.752Z,25.27
2023-12-17T06:17:32.798Z,25.30
2023-12-17T06:18:02.961Z,25.27
2023-12-17T06:18:32.941Z,25.28
2023-12-17T06:19:03.172Z,25.28
2023-12-17T06:19:33.130Z,25.27
2023-12-17T06:20:03.041Z,25.27
2023-12-17T06:20:33.101Z,25.28
2023-12-17T06:21:03.502Z,25.27
2023-12-17T06:21:33.225Z,25.27
2023-12-17T06:22:03.254Z,25.27
2023-12-17T06:22:33.241Z,25.27
2023-12-17T06:23:03.262Z,25.27
2023-12-17T06:23:33.316Z,25.27
2023-12-17T06:24:03.394Z,25.27
2023-12-17T06:24:33.436Z,25.26
2023-12-17T06:25:03.492Z,25.26
2023-12-17T06:25:33.552Z,25.27
2023-12-17T06:26:03.558Z,25.26
2023-12-17T06:26:33.577Z,25.26
2023-12-17T06:27:03.627Z,25.24
2023-12-17T06:27:33.672Z,25.24
2023-12-17T06:28:03.718Z,25.24
2023-12-17T06:28:33.755Z,25.24
2023-12-17T06:29:03.797Z,25.26
2023-12-17T06:29:33.796Z,25.27
2023-12-17T06:30:04.077Z,25.24
2023-12-17T06:30:33.993Z,25.27
2023-12-17T06:31:03.938Z,25.26
2023-12-17T06:31:34.033Z,25.23
2023-12-17T06:32:05.788Z,25.23
2023-12-17T06:33:04.270Z,25.27